createdAt,value
2023-07-15T00:01:16.964Z,18.20
2023-07-15T00:06:22.500Z,18.20
2023-07-15T00:11:31.615Z,18.10
2023-07-15T00:16:33.545Z,17.90
2023-07-15T00:21:35.658Z,17.90
2023-07-15T00:26:38.291Z,17.80
2023-07-15T00:31:40.304Z,17.90
2023-07-15T00:36:42.517Z,17.70
2023-07-15T00:41:44.704Z,17.70
2023-07-15T00:47:23.559Z,17.90
2023-07-15T00:52:27.011Z,17.70
2023-07-15T00:57:31.369Z,17.70
2023-07-15T01:02:34.200Z,17.50
2023-07-15T01:07:36.522Z,17.40
2023-07-15T01:12:38.319Z,17.50
2023-07-15T01:17:41.530Z,17.70
2023-07-15T01:22:43.823Z,17.20
2023-07-15T01:27:46.131Z,17.30
2023-07-15T01:32:48.305Z,17.10
2023-07-15T01:37:50.481Z,17.60
2023-07-15T01:42:52.553Z,17.10
2023-07-15T01:47:54.667Z,17.00
2023-07-15T01:52:57.834Z,17.10
2023-07-15T01:58:00.024Z,17.10
2023-07-15T02:03:03.392Z,17.00
2023-07-15T02:08:05.812Z,16.80
2023-07-15T02:13:08.289Z,16.90
2023-07-15T02:18:10.320Z,16.90
2023-07-15T02:23:12.323Z,16.80
2023-07-15T02:28:15.155Z,16.70
2023-07-15T02:33:16.925Z,16.50
2023-07-15T02:38:19.066Z,16.50
2023-07-15T02:43:21.038Z,16.30
2023-07-15T02:48:22.958Z,16.30
2023-07-15T02:53:27.472Z,16.40
2023-07-15T02:58:29.644Z,16.30
2023-07-15T03:03:31.925Z,16.10
2023-07-15T03:08:33.793Z,16.00
2023-07-15T03:13:36.390Z,16.10
2023-07-15T03:18:38.447Z,16.00
2023-07-15T03:23:40.360Z,16.10
2023-07-15T03:28:42.160Z,16.20
2023-07-15T03:33:44.350Z,16.20
2023-07-15T03:38:46.404Z,16.20
2023-07-15T03:43:48.618Z,16.00
2023-07-15T03:48:50.657Z,15.80
2023-07-15T03:53:52.848Z,15.80
2023-07-15T03:58:55.602Z,15.90
2023-07-15T04:03:57.511Z,15.90
2023-07-15T04:08:59.604Z,16.00
2023-07-15T04:14:02.837Z,15.80
2023-07-15T04:19:04.680Z,15.80
2023-07-15T04:24:08.291Z,16.10
2023-07-15T04:29:11.390Z,15.90
2023-07-15T04:34:17.914Z,16.10
2023-07-15T04:39:19.754Z,16.20
2023-07-15T04:44:23.016Z,16.10
2023-07-15T04:49:25.254Z,16.40
2023-07-15T04:54:27.125Z,16.50
2023-07-15T04:59:29.236Z,16.50
2023-07-15T05:04:31.243Z,16.50
2023-07-15T05:09:33.567Z,16.60
2023-07-15T05:14:35.412Z,16.60
2023-07-15T05:19:37.505Z,16.70
2023-07-15T05:24:40.543Z,16.90
2023-07-15T05:29:42.686Z,17.20
2023-07-15T05:34:45.355Z,17.30
2023-07-15T05:39:47.839Z,17.60
2023-07-15T05:44:49.761Z,18.90
2023-07-15T05:49:51.654Z,18.10
2023-07-15T05:54:53.472Z,18.50
2023-07-15T05:59:55.425Z,18.80
2023-07-15T06:04:57.645Z,19.10
2023-07-15T06:09:59.565Z,19.40
2023-07-15T06:15:02.744Z,19.90
2023-07-15T06:20:05.359Z,20.30
2023-07-15T06:25:07.584Z,20.80
2023-07-15T06:30:09.873Z,21.10
2023-07-15T06:35:11.781Z,21.20
2023-07-15T06:40:16.360Z,21.40
2023-07-15T06:45:21.715Z,21.40
2023-07-15T06:50:24.295Z,21.40
2023-07-15T06:55:28.106Z,21.60
2023-07-15T07:00:30.917Z,21.80
2023-07-15T07:05:32.781Z,21.60
2023-07-15T07:10:34.844Z,21.60
2023-07-15T07:15:36.677Z,21.80
2023-07-15T07:20:45.859Z,21.80
2023-07-15T07:25:50.795Z,22.20
2023-07-15T07:30:55.311Z,22.20
2023-07-15T07:35:58.843Z,22.30
2023-07-15T07:41:11.133Z,22.10
2023-07-15T07:46:13.967Z,22.50
2023-07-15T07:51:16.170Z,22.50
2023-07-15T08:01:23.170Z,22.30
2023-07-15T08:06:26.173Z,22.50
2023-07-15T08:11:28.019Z,22.60
2023-07-15T08:16:35.785Z,23.10
2023-07-15T08:21:38.274Z,24.20
2023-07-15T08:26:40.143Z,23.20
2023-07-15T08:31:42.092Z,23.50
2023-07-15T08:36:44.095Z,24.80
2023-07-15T08:41:46.535Z,25.70
2023-07-15T08:46:49.284Z,25.00
2023-07-15T08:51:51.488Z,25.40
2023-07-15T08:56:53.339Z,27.00
2023-07-15T09:01:55.196Z,26.20
2023-07-15T09:06:58.149Z,26.60
2023-07-15T09:12:06.478Z,27.80
2023-07-15T09:17:08.795Z,29.00
2023-07-15T09:22:11.890Z,28.50
2023-07-15T09:27:17.696Z,26.80
2023-07-15T09:32:24.015Z,28.90
2023-07-15T09:37:31.174Z,28.50
2023-07-15T09:42:54.342Z,28.50
2023-07-15T09:47:56.334Z,26.20
2023-07-15T09:53:00.646Z,28.90
2023-07-15T09:58:23.142Z,28.80
2023-07-15T10:03:34.450Z,29.50
2023-07-15T10:08:37.839Z,29.80
2023-07-15T10:13:41.614Z,30.00
2023-07-15T10:18:43.671Z,30.30
2023-07-15T10:23:46.188Z,30.00
2023-07-15T10:28:53.697Z,30.70
2023-07-15T10:33:56.811Z,30.70
2023-07-15T10:39:20.665Z,30.20
2023-07-15T10:44:27.048Z,27.60
2023-07-15T10:49:29.448Z,27.40
2023-07-15T10:54:33.550Z,28.30
2023-07-15T10:59:39.194Z,25.90
2023-07-15T11:04:42.190Z,26.00
2023-07-15T11:09:44.148Z,25.10
2023-07-15T11:14:46.035Z,24.90
2023-07-15T11:19:48.225Z,26.90
2023-07-15T11:24:50.848Z,26.50
2023-07-15T11:30:02.988Z,29.20
2023-07-15T11:35:16.751Z,30.90
2023-07-15T11:40:19.288Z,26.00
2023-07-15T11:45:23.170Z,25.20
2023-07-15T11:50:28.835Z,26.60
2023-07-15T11:55:31.692Z,26.70
2023-07-15T12:00:46.293Z,27.30
2023-07-15T12:05:49.092Z,25.50
2023-07-15T12:10:58.180Z,28.00
2023-07-15T12:16:01.399Z,25.10
2023-07-15T12:21:03.332Z,25.90
2023-07-15T12:26:06.298Z,25.80
2023-07-15T12:31:08.564Z,29.00
2023-07-15T12:36:13.245Z,28.80
2023-07-15T12:41:16.258Z,25.30
2023-07-15T12:46:18.798Z,25.20
2023-07-15T12:51:21.348Z,26.60
2023-07-15T12:56:25.365Z,27.00
2023-07-15T13:01:27.671Z,24.50
2023-07-15T13:06:29.649Z,24.60
2023-07-15T13:11:31.772Z,26.90
2023-07-15T13:16:33.723Z,30.30
2023-07-15T13:21:35.697Z,24.70
2023-07-15T13:26:40.469Z,25.10
2023-07-15T13:31:42.700Z,30.70
2023-07-15T13:36:44.835Z,30.90
2023-07-15T13:41:46.904Z,27.00
2023-07-15T13:46:48.763Z,26.60
2023-07-15T13:51:50.593Z,25.70
2023-07-15T13:56:53.780Z,29.30
2023-07-15T14:07:00.911Z,26.20
2023-07-15T14:12:02.844Z,27.80
2023-07-15T14:17:05.376Z,33.50
2023-07-15T14:22:16.054Z,30.70
2023-07-15T14:27:19.666Z,30.70
2023-07-15T14:32:21.567Z,29.50
2023-07-15T14:37:23.453Z,27.20
2023-07-15T14:42:25.342Z,26.30
2023-07-15T14:47:27.498Z,31.70
2023-07-15T14:52:29.415Z,28.70
2023-07-15T14:57:31.328Z,25.90
2023-07-15T15:02:33.334Z,25.80
2023-07-15T15:07:35.430Z,25.30
2023-07-15T15:12:37.491Z,25.60
2023-07-15T15:17:40.887Z,24.80
2023-07-15T15:22:43.042Z,24.50
2023-07-15T15:27:45.263Z,24.50
2023-07-15T15:32:47.255Z,28.00
2023-07-15T15:37:49.289Z,28.10
2023-07-15T15:42:51.386Z,28.10
2023-07-15T15:47:53.244Z,28.80
2023-07-15T15:52:55.195Z,28.20
2023-07-15T15:57:57.079Z,28.20
2023-07-15T16:02:59.178Z,28.50
2023-07-15T16:08:01.382Z,27.90
2023-07-15T16:13:04.078Z,25.70
2023-07-15T16:18:06.404Z,25.40
2023-07-15T16:23:08.325Z,24.60
2023-07-15T16:28:10.924Z,25.70
2023-07-15T16:33:13.134Z,24.10
2023-07-15T16:38:14.898Z,24.20
2023-07-15T16:43:17.057Z,25.60
2023-07-15T16:48:19.334Z,25.80
2023-07-15T16:53:21.602Z,24.90
2023-07-15T16:58:23.540Z,25.90
2023-07-15T17:03:25.623Z,25.70
2023-07-15T17:08:27.906Z,25.60
2023-07-15T17:13:30.130Z,25.40
2023-07-15T17:18:33.779Z,26.10
2023-07-15T17:23:35.782Z,26.00
2023-07-15T17:28:37.887Z,25.50
2023-07-15T17:33:41.161Z,24.20
2023-07-15T17:38:44.631Z,24.80
2023-07-15T17:43:46.584Z,25.20
2023-07-15T17:48:50.476Z,24.90
2023-07-15T17:53:52.286Z,25.30
2023-07-15T17:58:54.925Z,25.30
2023-07-15T18:03:57.475Z,25.60
2023-07-15T18:08:59.563Z,25.00
2023-07-15T18:14:01.908Z,25.60
2023-07-15T18:19:05.373Z,24.70
2023-07-15T18:24:07.311Z,23.90
2023-07-15T18:29:10.061Z,24.50
2023-07-15T18:34:23.778Z,24.00
2023-07-15T18:39:27.330Z,24.20
2023-07-15T18:44:29.422Z,23.40
2023-07-15T18:49:31.416Z,23.80
2023-07-15T18:54:33.702Z,24.40
2023-07-15T18:59:35.601Z,24.40
2023-07-15T19:04:39.956Z,24.60
2023-07-15T19:09:42.048Z,24.70
2023-07-15T19:14:43.842Z,24.70
2023-07-15T19:19:45.769Z,24.60
2023-07-15T19:24:47.633Z,24.50
2023-07-15T19:29:49.658Z,24.50
2023-07-15T19:34:51.496Z,24.50
2023-07-15T19:39:53.441Z,24.60
2023-07-15T19:44:55.365Z,24.50
2023-07-15T19:49:57.104Z,24.50
2023-07-15T19:54:58.863Z,24.20
2023-07-15T20:00:00.855Z,24.20
2023-07-15T20:05:03.397Z,24.30
2023-07-15T20:10:06.457Z,24.30
2023-07-15T20:15:08.410Z,24.20
2023-07-15T20:20:12.464Z,24.20
2023-07-15T20:25:14.283Z,24.10
2023-07-15T20:30:16.117Z,24.10
2023-07-15T20:35:18.144Z,24.10
2023-07-15T20:40:20.066Z,24.00
2023-07-15T20:45:22.439Z,24.00
2023-07-15T20:50:24.409Z,23.00
2023-07-15T20:55:29.811Z,23.00
2023-07-15T21:00:33.765Z,23.00
2023-07-15T21:05:35.736Z,22.80
2023-07-15T21:10:44.286Z,22.60
2023-07-15T21:15:46.161Z,22.30
2023-07-15T21:20:48.962Z,22.20
2023-07-15T21:25:51.958Z,22.20
2023-07-15T21:30:54.316Z,22.20
2023-07-15T21:35:56.649Z,22.00
2023-07-15T21:40:58.571Z,22.00
2023-07-15T21:46:00.367Z,21.90
2023-07-15T21:56:05.319Z,21.80
2023-07-15T22:01:07.274Z,21.60
2023-07-15T22:06:09.339Z,21.40
2023-07-15T22:11:11.496Z,21.10
2023-07-15T22:16:13.496Z,21.10
2023-07-15T22:21:15.460Z,21.20
2023-07-15T22:26:17.818Z,21.20
2023-07-15T22:31:21.351Z,21.10
2023-07-15T22:36:23.524Z,21.00
2023-07-15T22:41:25.624Z,21.00
2023-07-15T22:46:27.749Z,21.00
2023-07-15T22:51:29.677Z,20.70
2023-07-15T22:56:31.718Z,20.60
2023-07-15T23:01:35.370Z,20.50
2023-07-15T23:06:37.332Z,20.40
2023-07-15T23:11:41.054Z,20.50
2023-07-15T23:16:43.210Z,20.50
2023-07-15T23:21:46.737Z,20.40
2023-07-15T23:26:48.975Z,20.40
2023-07-15T23:31:52.079Z,20.50
2023-07-15T23:36:54.648Z,20.50
2023-07-15T23:41:56.850Z,20.40
2023-07-15T23:46:59.008Z,20.10
2023-07-15T23:52:00.920Z,19.80
2023-07-15T23:57:02.840Z,19.80
